createdAt,value
2024-03-22T00:00:13.327Z,65.50
2024-03-22T00:02:40.552Z,65.00
2024-03-22T00:05:07.780Z,64.45
2024-03-22T00:07:34.625Z,64.25
2024-03-22T00:10:01.549Z,64.20
2024-03-22T00:12:30.822Z,64.23
2024-03-22T00:14:58.041Z,64.38
2024-03-22T00:17:25.335Z,64.18
2024-03-22T00:19:52.640Z,64.24
2024-03-22T00:22:19.519Z,64.24
2024-03-22T00:24:46.895Z,64.69
2024-03-22T00:27:13.820Z,64.83
2024-03-22T00:29:40.894Z,65.16
2024-03-22T00:32:09.047Z,65.18
2024-03-22T00:34:36.090Z,65.54
2024-03-22T00:37:04.226Z,65.58
2024-03-22T00:39:31.026Z,65.59
2024-03-22T00:41:57.826Z,65.63
2024-03-22T00:44:24.622Z,65.75
2024-03-22T00:46:51.698Z,65.90
2024-03-22T00:49:19.278Z,65.95
2024-03-22T00:51:46.797Z,65.57
2024-03-22T00:54:14.506Z,65.55
2024-03-22T00:56:42.147Z,65.46
2024-03-22T00:59:08.935Z,65.34
2024-03-22T01:01:36.335Z,65.14
2024-03-22T01:04:04.866Z,65.05
2024-03-22T01:06:31.762Z,65.01
2024-03-22T01:08:59.832Z,65.03
2024-03-22T01:11:26.826Z,65.04
2024-03-22T01:13:54.135Z,64.84
2024-03-22T01:16:20.994Z,64.53
2024-03-22T01:18:48.137Z,64.71
2024-03-22T01:21:15.332Z,64.60
2024-03-22T01:23:42.178Z,64.56
2024-03-22T01:26:09.067Z,64.59
2024-03-22T01:28:37.203Z,64.67
2024-03-22T01:31:05.109Z,64.74
2024-03-22T01:33:31.852Z,64.77
2024-03-22T01:35:59.156Z,64.44
2024-03-22T01:38:26.465Z,64.27
2024-03-22T01:40:55.451Z,64.39
2024-03-22T01:43:22.642Z,64.20
2024-03-22T01:45:50.064Z,63.95
2024-03-22T01:48:21.459Z,63.93
2024-03-22T01:50:48.516Z,63.72
2024-03-22T01:53:15.975Z,63.27
2024-03-22T01:55:42.965Z,63.21
2024-03-22T01:58:11.141Z,63.06
2024-03-22T02:00:40.380Z,62.67
2024-03-22T02:03:07.698Z,62.73
2024-03-22T02:05:34.597Z,62.58
2024-03-22T02:08:01.741Z,62.42
2024-03-22T02:10:33.183Z,62.35
2024-03-22T02:13:00.241Z,62.10
2024-03-22T02:15:27.845Z,61.84
2024-03-22T02:17:55.303Z,61.89
2024-03-22T02:20:22.501Z,61.85
2024-03-22T02:22:53.237Z,62.10
2024-03-22T02:25:27.419Z,61.89
2024-03-22T02:27:54.352Z,62.01
2024-03-22T02:30:21.816Z,61.77
2024-03-22T02:32:54.793Z,61.75
2024-03-22T02:35:21.643Z,61.73
2024-03-22T02:37:49.127Z,61.70
2024-03-22T02:40:16.048Z,61.71
2024-03-22T02:42:43.710Z,61.73
2024-03-22T02:45:10.677Z,61.71
2024-03-22T02:47:38.371Z,61.66
2024-03-22T02:50:06.792Z,61.72
2024-03-22T02:52:35.061Z,61.46
2024-03-22T02:55:04.471Z,61.39
2024-03-22T02:57:31.280Z,61.49
2024-03-22T02:59:58.149Z,61.50
2024-03-22T03:02:25.326Z,61.68
2024-03-22T03:04:52.170Z,61.40
2024-03-22T03:07:20.814Z,61.63
2024-03-22T03:09:47.700Z,61.58
2024-03-22T03:12:15.159Z,61.62
2024-03-22T03:14:43.381Z,61.73
2024-03-22T03:17:10.359Z,61.76
2024-03-22T03:19:38.396Z,61.68
2024-03-22T03:22:06.363Z,61.65
2024-03-22T03:24:33.970Z,61.69
2024-03-22T03:27:01.193Z,61.45
2024-03-22T03:29:28.576Z,61.42
2024-03-22T03:31:55.623Z,61.20
2024-03-22T03:34:23.486Z,61.08
2024-03-22T03:36:50.496Z,61.36
2024-03-22T03:39:17.407Z,61.20
2024-03-22T03:41:44.782Z,61.14
2024-03-22T03:44:12.135Z,61.07
2024-03-22T03:46:39.102Z,61.21
2024-03-22T03:49:07.322Z,61.27
2024-03-22T03:51:34.564Z,61.29
2024-03-22T03:54:01.364Z,61.39
2024-03-22T03:56:29.305Z,61.40
2024-03-22T03:58:57.039Z,61.47
2024-03-22T04:01:24.091Z,61.42
2024-03-22T04:03:50.975Z,61.45
2024-03-22T04:06:18.245Z,61.36
2024-03-22T04:08:45.555Z,61.51
2024-03-22T04:11:14.981Z,61.51
2024-03-22T04:13:41.889Z,61.44
2024-03-22T04:16:09.801Z,61.65
2024-03-22T04:18:36.446Z,61.36
2024-03-22T04:21:05.329Z,61.43
2024-03-22T04:23:35.817Z,61.55
2024-03-22T04:26:04.616Z,61.23
2024-03-22T04:28:32.498Z,61.25
2024-03-22T04:31:04.496Z,61.32
2024-03-22T04:33:33.582Z,61.31
2024-03-22T04:36:04.413Z,61.32
2024-03-22T04:38:34.524Z,61.37
2024-03-22T04:41:02.510Z,61.56
2024-03-22T04:43:29.429Z,61.85
2024-03-22T04:45:56.342Z,61.69
2024-03-22T04:48:25.322Z,61.72
2024-03-22T04:50:53.839Z,61.86
2024-03-22T04:53:24.609Z,61.96
2024-03-22T04:55:52.759Z,61.92
2024-03-22T04:58:21.986Z,62.00
2024-03-22T05:00:50.561Z,62.19
2024-03-22T05:03:17.753Z,62.28
2024-03-22T05:05:44.629Z,62.44
2024-03-22T05:08:11.941Z,62.41
2024-03-22T05:10:38.828Z,62.54
2024-03-22T05:13:05.977Z,62.61
2024-03-22T05:15:33.429Z,62.72
2024-03-22T05:18:01.040Z,62.76
2024-03-22T05:20:28.961Z,62.83
2024-03-22T05:22:57.188Z,62.91
2024-03-22T05:25:24.356Z,63.02
2024-03-22T05:27:51.652Z,62.79
2024-03-22T05:30:19.050Z,62.82
2024-03-22T05:32:46.739Z,62.82
2024-03-22T05:35:14.077Z,62.71
2024-03-22T05:37:41.336Z,62.59
2024-03-22T05:40:10.113Z,62.54
2024-03-22T05:42:37.640Z,62.59
2024-03-22T05:45:04.996Z,62.48
2024-03-22T05:47:38.252Z,62.58
2024-03-22T05:50:07.974Z,62.61
2024-03-22T05:52:34.994Z,62.62
2024-03-22T05:55:02.111Z,62.62
2024-03-22T05:57:30.084Z,62.45
2024-03-22T05:59:59.715Z,62.63
2024-03-22T06:02:27.704Z,62.54
2024-03-22T06:04:54.651Z,62.63
2024-03-22T06:07:22.161Z,62.76
2024-03-22T06:09:50.027Z,62.81
2024-03-22T06:12:17.609Z,62.73
2024-03-22T06:14:45.558Z,62.63
2024-03-22T06:17:13.525Z,62.60
2024-03-22T06:19:41.146Z,62.65
2024-03-22T06:22:10.360Z,62.68
2024-03-22T06:24:45.031Z,62.68
2024-03-22T06:27:13.883Z,62.64
2024-03-22T06:29:41.156Z,62.52
2024-03-22T06:32:11.482Z,62.71
2024-03-22T06:34:39.619Z,62.69
2024-03-22T06:37:08.521Z,62.66
2024-03-22T06:39:36.413Z,62.97
2024-03-22T06:42:04.797Z,62.75
2024-03-22T06:44:34.612Z,62.72
2024-03-22T06:47:06.571Z,62.40
2024-03-22T06:49:36.286Z,61.94
2024-03-22T06:52:03.531Z,61.75
2024-03-22T06:54:31.307Z,61.57
2024-03-22T06:57:00.146Z,61.25
2024-03-22T06:59:28.415Z,61.14
2024-03-22T07:01:55.362Z,61.33
2024-03-22T07:04:22.415Z,61.28
2024-03-22T07:06:51.361Z,61.39
2024-03-22T07:09:18.697Z,61.28
2024-03-22T07:11:45.591Z,61.28
2024-03-22T07:14:12.829Z,61.26
2024-03-22T07:16:43.437Z,61.35
2024-03-22T07:19:10.685Z,61.26
2024-03-22T07:21:38.338Z,60.84
2024-03-22T07:24:05.340Z,60.56
2024-03-22T07:26:32.397Z,60.52
2024-03-22T07:29:01.224Z,59.87
2024-03-22T07:31:28.483Z,59.31
2024-03-22T07:33:57.636Z,58.80
2024-03-22T07:36:25.645Z,58.09
2024-03-22T07:38:53.008Z,57.46
2024-03-22T07:41:20.388Z,57.04
2024-03-22T07:43:47.197Z,55.96
2024-03-22T07:46:15.336Z,54.54
2024-03-22T07:48:42.933Z,52.77
2024-03-22T07:51:09.850Z,51.94
2024-03-22T07:53:37.203Z,51.49
2024-03-22T07:56:05.102Z,51.10
2024-03-22T07:58:33.278Z,50.29
2024-03-22T08:01:05.553Z,49.71
2024-03-22T08:03:32.593Z,49.36
2024-03-22T08:05:59.439Z,48.73
2024-03-22T08:08:27.073Z,47.48
2024-03-22T08:10:53.921Z,45.41
2024-03-22T08:13:21.443Z,43.82
2024-03-22T08:15:50.251Z,42.69
2024-03-22T08:18:17.828Z,42.23
2024-03-22T08:20:46.136Z,41.41
2024-03-22T08:23:13.374Z,40.01
2024-03-22T08:25:40.788Z,38.81
2024-03-22T08:28:14.378Z,37.87
2024-03-22T08:30:46.741Z,37.35
2024-03-22T08:33:15.152Z,37.06
2024-03-22T08:35:44.624Z,35.77
2024-03-22T08:38:13.508Z,35.52
2024-03-22T08:40:42.338Z,33.86
2024-03-22T08:43:10.230Z,33.08
2024-03-22T08:45:37.474Z,32.15
2024-03-22T08:48:04.757Z,31.73
2024-03-22T08:50:35.497Z,31.80
2024-03-22T08:53:06.082Z,30.34
2024-03-22T08:55:36.192Z,30.84
2024-03-22T08:58:06.726Z,31.03
2024-03-22T09:00:34.355Z,31.28
2024-03-22T09:03:02.666Z,32.15
2024-03-22T09:05:29.656Z,31.86
2024-03-22T09:07:59.520Z,33.09
2024-03-22T09:10:29.341Z,34.05
2024-03-22T09:12:57.967Z,35.18
2024-03-22T09:15:25.877Z,35.46
2024-03-22T09:17:54.955Z,35.64
2024-03-22T09:20:22.460Z,36.10
2024-03-22T09:22:51.891Z,36.75
2024-03-22T09:25:20.181Z,36.75
2024-03-22T09:27:49.061Z,37.60
2024-03-22T09:30:16.743Z,37.74
2024-03-22T09:32:45.298Z,37.39
2024-03-22T09:35:16.846Z,37.61
2024-03-22T09:37:49.002Z,37.70
2024-03-22T09:40:16.078Z,37.82
2024-03-22T09:42:45.576Z,38.51
2024-03-22T09:45:14.403Z,38.07
2024-03-22T09:47:42.702Z,37.34
2024-03-22T09:50:10.872Z,37.53
2024-03-22T09:52:40.163Z,38.50
2024-03-22T09:55:14.437Z,39.27
2024-03-22T09:57:44.405Z,39.35
2024-03-22T10:00:15.394Z,39.21
2024-03-22T10:02:44.186Z,39.53
2024-03-22T10:05:11.567Z,40.17
2024-03-22T10:07:39.036Z,40.05
2024-03-22T10:10:07.156Z,40.39
2024-03-22T10:12:35.818Z,41.06
2024-03-22T10:15:03.730Z,41.41
2024-03-22T10:17:32.500Z,41.48
2024-03-22T10:19:59.415Z,41.83
2024-03-22T10:22:26.918Z,42.72
2024-03-22T10:24:55.572Z,42.50
2024-03-22T10:27:22.852Z,42.67
2024-03-22T10:29:52.266Z,43.14
2024-03-22T10:32:24.019Z,44.87
2024-03-22T10:34:52.468Z,44.31
2024-03-22T10:37:20.368Z,43.65
2024-03-22T10:39:50.488Z,44.01
2024-03-22T10:42:18.189Z,44.64
2024-03-22T10:44:46.413Z,44.05
2024-03-22T10:47:16.977Z,43.29
2024-03-22T10:49:51.041Z,43.68
2024-03-22T10:52:19.776Z,43.89
2024-03-22T10:54:49.074Z,44.22
2024-03-22T10:57:19.070Z,44.14
2024-03-22T10:59:50.429Z,44.53
2024-03-22T11:02:20.493Z,44.33
2024-03-22T11:04:57.847Z,44.33
2024-03-22T11:07:29.454Z,44.50
2024-03-22T11:10:06.019Z,44.73
2024-03-22T11:12:35.378Z,44.90
2024-03-22T11:15:02.650Z,45.16
2024-03-22T11:17:29.551Z,45.82
2024-03-22T11:20:00.495Z,45.47
2024-03-22T11:22:28.067Z,45.33
2024-03-22T11:24:55.628Z,45.33
2024-03-22T11:27:25.695Z,45.95
2024-03-22T11:29:52.790Z,45.16
2024-03-22T11:32:21.832Z,44.95
2024-03-22T11:34:51.107Z,45.57
2024-03-22T11:37:18.500Z,45.75
2024-03-22T11:39:45.808Z,45.27
2024-03-22T11:42:14.482Z,45.79
2024-03-22T11:44:42.779Z,45.50
2024-03-22T11:47:10.981Z,46.60
2024-03-22T11:49:38.797Z,46.90
2024-03-22T11:52:08.973Z,46.04
2024-03-22T11:54:38.419Z,45.90
2024-03-22T11:57:05.751Z,45.22
2024-03-22T11:59:34.050Z,45.25
2024-03-22T12:02:02.126Z,45.42
2024-03-22T12:04:29.272Z,45.22
2024-03-22T12:06:59.457Z,44.83
2024-03-22T12:09:27.875Z,45.15
2024-03-22T12:11:57.364Z,44.65
2024-03-22T12:14:25.912Z,44.55
2024-03-22T12:16:55.060Z,44.55
2024-03-22T12:19:21.963Z,44.96
2024-03-22T12:21:50.443Z,45.09
2024-03-22T12:24:19.858Z,45.05
2024-03-22T12:26:48.193Z,45.18
2024-03-22T12:29:17.717Z,45.76
2024-03-22T12:31:45.268Z,46.20
2024-03-22T12:34:13.811Z,45.99
2024-03-22T12:36:40.907Z,45.60
2024-03-22T12:39:09.987Z,45.35
2024-03-22T12:41:38.336Z,44.99
2024-03-22T12:44:06.713Z,45.12
2024-03-22T12:46:34.324Z,44.93
2024-03-22T12:49:05.396Z,44.98
2024-03-22T12:51:33.371Z,45.09
2024-03-22T12:54:01.171Z,44.79
2024-03-22T12:56:31.336Z,44.94
2024-03-22T12:58:59.096Z,44.76
2024-03-22T13:01:27.343Z,44.82
2024-03-22T13:03:55.614Z,44.75
2024-03-22T13:06:26.334Z,44.47
2024-03-22T13:08:54.056Z,44.90
2024-03-22T13:11:23.255Z,45.36
2024-03-22T13:13:57.170Z,45.88
2024-03-22T13:16:25.255Z,46.08
2024-03-22T13:18:53.529Z,46.22
2024-03-22T13:21:23.091Z,46.10
2024-03-22T13:23:58.056Z,45.72
2024-03-22T13:26:25.774Z,46.40
2024-03-22T13:28:53.088Z,46.44
2024-03-22T13:31:20.386Z,46.32
2024-03-22T13:33:49.216Z,46.34
2024-03-22T13:36:17.176Z,46.63
2024-03-22T13:38:46.991Z,46.84
2024-03-22T13:41:13.826Z,46.69
2024-03-22T13:43:41.620Z,46.59
2024-03-22T13:46:08.969Z,46.67
2024-03-22T13:48:36.449Z,46.59
2024-03-22T13:51:04.372Z,46.11
2024-03-22T13:53:31.624Z,46.08
2024-03-22T13:55:59.597Z,46.53
2024-03-22T13:58:29.712Z,46.68
2024-03-22T14:00:56.989Z,46.35
2024-03-22T14:03:24.342Z,46.72
2024-03-22T14:05:51.276Z,46.30
2024-03-22T14:08:20.411Z,46.48
2024-03-22T14:10:56.761Z,46.23
2024-03-22T14:13:23.839Z,46.07
2024-03-22T14:16:00.308Z,46.42
2024-03-22T14:18:27.564Z,46.14
2024-03-22T14:20:54.741Z,46.42
2024-03-22T14:23:22.220Z,47.06
2024-03-22T14:25:51.317Z,47.12
2024-03-22T14:28:19.030Z,47.42
2024-03-22T14:30:45.821Z,47.57
2024-03-22T14:33:12.979Z,47.70
2024-03-22T14:35:39.872Z,47.44
2024-03-22T14:38:07.586Z,47.67
2024-03-22T14:40:38.384Z,47.55
2024-03-22T14:43:06.461Z,46.89
2024-03-22T14:45:37.828Z,47.00
2024-03-22T14:48:07.448Z,46.76
2024-03-22T14:50:39.348Z,47.17
2024-03-22T14:53:06.827Z,47.89
2024-03-22T14:55:34.549Z,47.14
2024-03-22T14:58:02.300Z,47.11
2024-03-22T15:00:29.842Z,47.16
2024-03-22T15:02:56.948Z,46.49
2024-03-22T15:05:23.882Z,46.61
2024-03-22T15:07:51.349Z,47.18
2024-03-22T15:10:18.805Z,46.62
2024-03-22T15:12:47.056Z,46.06
2024-03-22T15:15:15.473Z,46.50
2024-03-22T15:17:43.735Z,45.73
2024-03-22T15:20:11.096Z,45.49
2024-03-22T15:22:37.960Z,45.70
2024-03-22T15:25:07.649Z,45.63
2024-03-22T15:27:37.833Z,44.95
2024-03-22T15:30:07.432Z,44.82
2024-03-22T15:32:35.248Z,45.42
2024-03-22T15:35:02.635Z,44.80
2024-03-22T15:37:30.091Z,44.68
2024-03-22T15:39:57.410Z,44.46
2024-03-22T15:42:24.686Z,44.11
2024-03-22T15:44:53.399Z,44.38
2024-03-22T15:47:20.718Z,44.43
2024-03-22T15:49:48.056Z,44.46
2024-03-22T15:52:14.982Z,44.32
2024-03-22T15:54:43.092Z,44.03
2024-03-22T15:57:11.459Z,43.73
2024-03-22T15:59:38.830Z,44.23
2024-03-22T16:02:12.676Z,44.65
2024-03-22T16:04:49.529Z,43.74
2024-03-22T16:07:17.156Z,44.05
2024-03-22T16:09:45.340Z,43.68
2024-03-22T16:12:14.319Z,43.95
2024-03-22T16:14:43.213Z,44.86
2024-03-22T16:17:12.632Z,44.27
2024-03-22T16:19:39.883Z,45.11
2024-03-22T16:22:07.554Z,44.53
2024-03-22T16:24:34.707Z,44.83
2024-03-22T16:27:02.055Z,44.89
2024-03-22T16:29:29.136Z,44.41
2024-03-22T16:31:56.004Z,45.07
2024-03-22T16:34:22.879Z,45.00
2024-03-22T16:36:49.738Z,44.81
2024-03-22T16:39:16.922Z,44.87
2024-03-22T16:41:44.323Z,45.46
2024-03-22T16:44:11.204Z,45.38
2024-03-22T16:46:38.549Z,45.77
2024-03-22T16:49:09.450Z,45.27
2024-03-22T16:51:36.280Z,45.11
2024-03-22T16:54:04.048Z,45.58
2024-03-22T16:56:31.544Z,45.31
2024-03-22T16:59:09.764Z,45.20
2024-03-22T17:01:38.453Z,46.33
2024-03-22T17:04:06.071Z,46.61
2024-03-22T17:06:43.148Z,45.95
2024-03-22T17:09:11.838Z,45.43
2024-03-22T17:11:41.422Z,45.59
2024-03-22T17:14:10.274Z,45.42
2024-03-22T17:16:37.883Z,45.22
2024-03-22T17:19:05.545Z,45.37
2024-03-22T17:21:34.011Z,45.35
2024-03-22T17:24:01.231Z,45.72
2024-03-22T17:26:28.670Z,46.18
2024-03-22T17:28:55.781Z,46.10
2024-03-22T17:31:31.357Z,45.96
2024-03-22T17:34:06.258Z,45.66
2024-03-22T17:36:35.959Z,45.66
2024-03-22T17:39:03.158Z,45.58
2024-03-22T17:41:30.466Z,45.76
2024-03-22T17:43:58.740Z,45.87
2024-03-22T17:46:26.005Z,45.47
2024-03-22T17:48:55.042Z,45.87
2024-03-22T17:51:24.260Z,46.07
2024-03-22T17:53:52.941Z,45.90
2024-03-22T17:56:20.958Z,46.14
2024-03-22T17:58:48.213Z,46.19
2024-03-22T18:01:15.691Z,46.24
2024-03-22T18:03:42.687Z,46.25
2024-03-22T18:06:10.016Z,46.17
2024-03-22T18:08:37.781Z,46.20
2024-03-22T18:11:05.263Z,46.43
2024-03-22T18:13:33.542Z,46.44
2024-03-22T18:16:03.891Z,46.39
2024-03-22T18:18:31.492Z,46.01
2024-03-22T18:20:59.455Z,46.31
2024-03-22T18:23:27.020Z,46.31
2024-03-22T18:25:57.193Z,46.30
2024-03-22T18:28:25.242Z,46.20
2024-03-22T18:30:53.008Z,46.29
2024-03-22T18:33:21.704Z,46.31
2024-03-22T18:35:49.770Z,46.03
2024-03-22T18:38:17.613Z,46.15
2024-03-22T18:40:44.961Z,46.31
2024-03-22T18:43:14.625Z,46.31
2024-03-22T18:45:42.206Z,46.33
2024-03-22T18:48:10.942Z,46.66
2024-03-22T18:50:38.802Z,46.61
2024-03-22T18:53:05.685Z,46.79
2024-03-22T18:55:33.315Z,46.74
2024-03-22T18:58:00.395Z,46.97
2024-03-22T19:00:27.815Z,47.24
2024-03-22T19:02:55.067Z,47.47
2024-03-22T19:05:22.203Z,47.42
2024-03-22T19:07:51.982Z,47.30
2024-03-22T19:10:19.282Z,47.41
2024-03-22T19:12:46.268Z,47.19
2024-03-22T19:15:13.626Z,47.39
2024-03-22T19:17:42.613Z,47.62
2024-03-22T19:20:11.007Z,47.65
2024-03-22T19:22:39.338Z,48.24
2024-03-22T19:25:08.276Z,49.04
2024-03-22T19:27:38.153Z,50.81
2024-03-22T19:30:08.435Z,51.79
2024-03-22T19:32:37.345Z,52.92
2024-03-22T19:35:05.526Z,53.08
2024-03-22T19:37:33.303Z,53.11
2024-03-22T19:40:00.700Z,53.63
2024-03-22T19:42:31.021Z,53.07
2024-03-22T19:44:58.537Z,53.69
2024-03-22T19:47:26.320Z,53.91
2024-03-22T19:49:56.488Z,53.77
2024-03-22T19:52:27.509Z,54.23
2024-03-22T19:54:54.566Z,54.91
2024-03-22T19:57:22.567Z,54.46
2024-03-22T19:59:55.011Z,54.44
2024-03-22T20:02:26.013Z,54.34
2024-03-22T20:04:55.182Z,54.90
2024-03-22T20:07:23.568Z,54.53
2024-03-22T20:09:51.588Z,55.04
2024-03-22T20:12:19.018Z,55.43
2024-03-22T20:14:47.212Z,55.59
2024-03-22T20:17:14.585Z,55.72
2024-03-22T20:19:48.546Z,56.13
2024-03-22T20:22:15.431Z,56.37
2024-03-22T20:24:45.439Z,56.29
2024-03-22T20:27:13.493Z,56.26
2024-03-22T20:29:43.696Z,56.97
2024-03-22T20:32:10.829Z,57.12
2024-03-22T20:34:38.400Z,56.58
2024-03-22T20:37:07.098Z,56.47
2024-03-22T20:39:34.583Z,55.84
2024-03-22T20:42:02.145Z,55.70
2024-03-22T20:44:30.376Z,56.78
2024-03-22T20:46:57.262Z,56.27
2024-03-22T20:49:24.150Z,56.06
2024-03-22T20:51:53.474Z,55.33
2024-03-22T20:54:20.774Z,54.89
2024-03-22T20:56:47.668Z,55.47
2024-03-22T20:59:15.008Z,55.97
2024-03-22T21:01:41.858Z,55.21
2024-03-22T21:04:08.942Z,55.17
2024-03-22T21:06:36.564Z,55.18
2024-03-22T21:09:04.448Z,55.31
2024-03-22T21:11:32.215Z,55.29
2024-03-22T21:14:00.035Z,55.06
2024-03-22T21:16:27.627Z,55.27
2024-03-22T21:18:54.583Z,55.25
2024-03-22T21:21:21.527Z,55.29
2024-03-22T21:23:49.247Z,55.25
2024-03-22T21:26:16.050Z,55.51
2024-03-22T21:28:48.478Z,55.88
2024-03-22T21:31:19.032Z,55.85
2024-03-22T21:33:45.807Z,56.45
2024-03-22T21:36:14.012Z,56.62
2024-03-22T21:38:41.222Z,56.46
2024-03-22T21:41:09.920Z,56.75
2024-03-22T21:43:36.853Z,57.02
2024-03-22T21:46:06.464Z,57.35
2024-03-22T21:48:35.146Z,57.50
2024-03-22T21:51:02.553Z,57.36
2024-03-22T21:53:29.488Z,57.74
2024-03-22T21:55:56.610Z,57.77
2024-03-22T21:58:23.837Z,57.71
2024-03-22T22:00:50.835Z,57.83
2024-03-22T22:03:18.936Z,57.84
2024-03-22T22:05:46.059Z,57.97
2024-03-22T22:08:13.865Z,57.94
2024-03-22T22:10:41.287Z,57.78
2024-03-22T22:13:12.208Z,58.04
2024-03-22T22:15:38.995Z,58.55
2024-03-22T22:18:06.170Z,58.35
2024-03-22T22:20:33.314Z,58.15
2024-03-22T22:23:00.459Z,58.57
2024-03-22T22:25:29.042Z,58.70
2024-03-22T22:27:55.941Z,58.69
2024-03-22T22:30:23.601Z,58.41
2024-03-22T22:32:51.877Z,58.79
2024-03-22T22:35:18.923Z,58.35
2024-03-22T22:37:46.028Z,58.66
2024-03-22T22:40:12.766Z,58.83
2024-03-22T22:42:39.821Z,59.31
2024-03-22T22:45:06.608Z,59.41
2024-03-22T22:47:33.907Z,59.19
2024-03-22T22:50:01.147Z,59.58
2024-03-22T22:52:28.146Z,59.39
2024-03-22T22:54:55.010Z,59.43
2024-03-22T22:57:22.153Z,59.17
2024-03-22T22:59:49.240Z,59.57
2024-03-22T23:02:15.992Z,59.41
2024-03-22T23:04:43.182Z,59.82
2024-03-22T23:07:10.691Z,60.43
2024-03-22T23:09:38.996Z,60.48
2024-03-22T23:12:06.488Z,60.44
2024-03-22T23:14:34.332Z,60.67
2024-03-22T23:17:01.559Z,60.84
2024-03-22T23:19:29.513Z,60.79
2024-03-22T23:21:56.933Z,60.88
2024-03-22T23:24:26.766Z,61.21
2024-03-22T23:26:53.999Z,61.04
2024-03-22T23:29:21.472Z,60.50
2024-03-22T23:31:49.823Z,60.75
2024-03-22T23:34:18.520Z,61.08
2024-03-22T23:36:48.208Z,60.69
2024-03-22T23:39:15.836Z,61.12
2024-03-22T23:41:42.772Z,61.31
2024-03-22T23:44:10.084Z,60.87
2024-03-22T23:46:36.985Z,60.82
2024-03-22T23:49:04.319Z,60.67
2024-03-22T23:51:31.236Z,60.55
2024-03-22T23:53:59.651Z,60.74
2024-03-22T23:56:27.726Z,60.91
2024-03-22T23:58:54.520Z,60.80
